createdAt,value
2023-05-10T00:00:15.826Z,13.60
2023-05-10T00:02:47.755Z,13.54
2023-05-10T00:05:18.400Z,13.48
2023-05-10T00:07:49.010Z,13.43
2023-05-10T00:10:19.642Z,13.39
2023-05-10T00:12:50.468Z,13.36
2023-05-10T00:15:21.520Z,13.39
2023-05-10T00:17:52.350Z,13.33
2023-05-10T00:20:23.084Z,13.28
2023-05-10T00:22:53.403Z,13.24
2023-05-10T00:25:24.173Z,13.22
2023-05-10T00:27:54.967Z,13.17
2023-05-10T00:30:25.629Z,13.14
2023-05-10T00:32:55.976Z,13.09
2023-05-10T00:35:26.272Z,13.09
2023-05-10T00:37:56.764Z,13.04
2023-05-10T00:40:27.173Z,13.02
2023-05-10T00:43:03.374Z,12.95
2023-05-10T00:45:35.688Z,12.91
2023-05-10T00:48:07.804Z,12.86
2023-05-10T00:50:38.911Z,12.86
2023-05-10T00:53:09.885Z,12.83
2023-05-10T00:55:40.847Z,12.78
2023-05-10T00:58:11.193Z,12.72
2023-05-10T01:00:45.988Z,12.71
2023-05-10T01:03:16.478Z,12.62
2023-05-10T01:05:46.790Z,12.58
2023-05-10T01:08:17.148Z,12.55
2023-05-10T01:10:47.873Z,12.51
2023-05-10T01:13:28.264Z,12.55
2023-05-10T01:15:59.059Z,12.48
2023-05-10T01:18:30.673Z,12.41
2023-05-10T01:21:16.567Z,12.37
2023-05-10T01:24:01.672Z,12.32
2023-05-10T01:27:07.822Z,12.34
2023-05-10T01:30:05.065Z,12.31
2023-05-10T01:33:14.492Z,12.30
2023-05-10T01:36:12.427Z,12.27
2023-05-10T01:39:04.280Z,12.24
2023-05-10T01:41:37.050Z,12.18
2023-05-10T01:44:14.423Z,12.20
2023-05-10T01:46:45.318Z,12.14
2023-05-10T01:49:28.507Z,12.11
2023-05-10T01:52:16.496Z,12.08
2023-05-10T01:55:23.719Z,12.05
2023-05-10T01:58:10.048Z,11.97
2023-05-10T02:00:45.309Z,11.89
2023-05-10T02:03:18.009Z,11.89
2023-05-10T02:05:49.219Z,11.91
2023-05-10T02:08:21.478Z,11.84
2023-05-10T02:10:54.828Z,11.79
2023-05-10T02:13:28.452Z,11.74
2023-05-10T02:16:00.185Z,11.70
2023-05-10T02:18:30.645Z,11.72
2023-05-10T02:21:01.534Z,11.73
2023-05-10T02:23:33.028Z,11.70
2023-05-10T02:26:04.236Z,11.67
2023-05-10T02:28:36.164Z,11.63
2023-05-10T02:31:07.962Z,11.62
2023-05-10T02:33:39.756Z,11.59
2023-05-10T02:36:12.481Z,11.59
2023-05-10T02:38:44.546Z,11.52
2023-05-10T02:41:15.644Z,11.52
2023-05-10T02:43:46.761Z,11.47
2023-05-10T02:46:17.858Z,11.45
2023-05-10T02:48:48.318Z,11.39
2023-05-10T02:51:21.729Z,11.39
2023-05-10T02:53:53.387Z,11.35
2023-05-10T02:56:38.292Z,11.29
2023-05-10T02:59:08.655Z,11.26
2023-05-10T03:01:38.784Z,11.22
2023-05-10T03:04:09.930Z,11.25
2023-05-10T03:06:40.336Z,11.22
2023-05-10T03:09:14.716Z,11.19
2023-05-10T03:12:10.797Z,11.12
2023-05-10T03:14:58.841Z,11.10
2023-05-10T03:17:42.849Z,11.10
2023-05-10T03:20:16.816Z,11.07
2023-05-10T03:23:14.813Z,11.07
2023-05-10T03:25:46.942Z,11.01
2023-05-10T03:28:19.321Z,10.98
2023-05-10T03:30:51.179Z,10.93
2023-05-10T03:33:23.469Z,10.87
2023-05-10T03:35:53.514Z,10.88
2023-05-10T03:38:23.879Z,10.88
2023-05-10T03:40:53.885Z,10.84
2023-05-10T03:43:23.811Z,10.80
2023-05-10T03:45:53.967Z,10.77
2023-05-10T03:48:23.845Z,10.77
2023-05-10T03:50:54.317Z,10.73
2023-05-10T03:53:24.962Z,10.70
2023-05-10T03:55:55.021Z,10.71
2023-05-10T03:58:24.942Z,10.71
2023-05-10T04:00:55.199Z,10.68
2023-05-10T04:03:25.464Z,10.63
2023-05-10T04:06:03.417Z,10.60
2023-05-10T04:08:34.257Z,10.57
2023-05-10T04:11:15.029Z,10.53
2023-05-10T04:13:45.350Z,10.53
2023-05-10T04:16:15.865Z,10.56
2023-05-10T04:18:45.916Z,10.52
2023-05-10T04:21:17.012Z,10.43
2023-05-10T04:23:47.434Z,10.43
2023-05-10T04:26:17.497Z,10.43
2023-05-10T04:28:47.580Z,10.42
2023-05-10T04:31:18.578Z,10.44
2023-05-10T04:33:48.668Z,10.43
2023-05-10T04:36:18.860Z,10.35
2023-05-10T04:38:48.988Z,10.33
2023-05-10T04:41:18.995Z,10.32
2023-05-10T04:43:51.231Z,10.29
2023-05-10T04:46:21.946Z,10.28
2023-05-10T04:48:52.045Z,10.25
2023-05-10T04:51:22.670Z,10.22
2023-05-10T04:54:04.639Z,10.19
2023-05-10T04:56:36.349Z,10.19
2023-05-10T04:59:06.619Z,10.17
2023-05-10T05:01:36.741Z,10.17
2023-05-10T05:04:07.220Z,10.15
2023-05-10T05:06:37.994Z,10.08
2023-05-10T05:09:08.075Z,10.09
2023-05-10T05:11:38.323Z,10.03
2023-05-10T05:14:08.505Z,10.01
2023-05-10T05:16:38.573Z,10.01
2023-05-10T05:19:08.718Z,9.99
2023-05-10T05:21:38.996Z,9.99
2023-05-10T05:24:09.440Z,10.01
2023-05-10T05:26:39.777Z,9.99
2023-05-10T05:29:09.862Z,10.01
2023-05-10T05:31:40.004Z,9.96
2023-05-10T05:34:10.211Z,9.95
2023-05-10T05:36:43.515Z,9.92
2023-05-10T05:39:14.623Z,9.89
2023-05-10T05:41:44.914Z,9.89
2023-05-10T05:44:15.073Z,9.86
2023-05-10T05:46:44.902Z,9.81
2023-05-10T05:49:14.888Z,9.79
2023-05-10T05:51:45.247Z,9.77
2023-05-10T05:54:15.421Z,9.75
2023-05-10T05:56:46.433Z,9.75
2023-05-10T05:59:16.422Z,9.77
2023-05-10T06:01:47.540Z,9.77
2023-05-10T06:04:17.889Z,9.74
2023-05-10T06:06:48.319Z,9.70
2023-05-10T06:09:18.379Z,9.70
2023-05-10T06:11:48.838Z,9.68
2023-05-10T06:14:19.508Z,9.67
2023-05-10T06:16:49.600Z,9.62
2023-05-10T06:19:19.847Z,9.59
2023-05-10T06:21:50.692Z,9.59
2023-05-10T06:24:22.157Z,9.54
2023-05-10T06:26:52.616Z,9.54
2023-05-10T06:29:22.928Z,9.48
2023-05-10T06:31:53.045Z,9.45
2023-05-10T06:34:23.086Z,9.40
2023-05-10T06:36:53.772Z,9.44
2023-05-10T06:39:24.401Z,9.38
2023-05-10T06:41:54.597Z,9.37
2023-05-10T06:44:25.852Z,9.41
2023-05-10T06:46:57.382Z,9.37
2023-05-10T06:49:27.599Z,9.33
2023-05-10T06:51:58.705Z,9.28
2023-05-10T06:54:30.127Z,9.30
2023-05-10T06:57:01.859Z,9.28
2023-05-10T06:59:33.818Z,9.26
2023-05-10T07:02:03.967Z,9.22
2023-05-10T07:04:34.235Z,9.23
2023-05-10T07:07:04.286Z,9.17
2023-05-10T07:09:34.443Z,9.20
2023-05-10T07:12:04.961Z,9.20
2023-05-10T07:14:35.104Z,9.16
2023-05-10T07:17:05.201Z,9.15
2023-05-10T07:19:35.417Z,9.12
2023-05-10T07:22:05.869Z,9.07
2023-05-10T07:24:37.216Z,9.06
2023-05-10T07:27:07.744Z,9.05
2023-05-10T07:29:39.534Z,9.03
2023-05-10T07:32:10.637Z,9.02
2023-05-10T07:34:40.863Z,9.02
2023-05-10T07:37:10.986Z,9.03
2023-05-10T07:39:41.037Z,9.02
2023-05-10T07:42:11.372Z,8.93
2023-05-10T07:44:41.451Z,8.90
2023-05-10T07:47:11.883Z,8.86
2023-05-10T07:49:42.240Z,8.79
2023-05-10T07:52:12.339Z,8.79
2023-05-10T07:54:42.339Z,8.76
2023-05-10T07:57:12.703Z,8.73
2023-05-10T07:59:42.772Z,8.75
2023-05-10T08:02:13.287Z,8.75
2023-05-10T08:04:43.522Z,8.76
2023-05-10T08:07:14.068Z,8.73
2023-05-10T08:09:44.236Z,8.71
2023-05-10T08:12:14.764Z,8.66
2023-05-10T08:14:45.030Z,8.61
2023-05-10T08:17:15.467Z,8.61
2023-05-10T08:19:45.461Z,8.58
2023-05-10T08:22:15.586Z,8.59
2023-05-10T08:24:45.811Z,8.59
2023-05-10T08:27:15.642Z,8.55
2023-05-10T08:29:50.040Z,8.51
2023-05-10T08:32:21.829Z,8.47
2023-05-10T08:34:51.872Z,8.41
2023-05-10T08:37:22.351Z,8.41
2023-05-10T08:39:52.401Z,8.38
2023-05-10T08:42:27.990Z,8.28
2023-05-10T08:44:59.600Z,8.34
2023-05-10T08:47:30.061Z,8.40
2023-05-10T08:50:03.219Z,8.35
2023-05-10T08:52:35.274Z,8.31
2023-05-10T08:55:05.581Z,8.25
2023-05-10T08:57:35.751Z,8.21
2023-05-10T09:00:06.731Z,8.23
2023-05-10T09:02:39.468Z,8.18
2023-05-10T09:05:11.194Z,8.24
2023-05-10T09:07:41.434Z,8.30
2023-05-10T09:10:13.372Z,8.21
2023-05-10T09:12:46.170Z,8.10
2023-05-10T09:15:21.315Z,7.93
2023-05-10T09:17:53.170Z,7.90
2023-05-10T09:20:24.768Z,7.90
2023-05-10T09:22:54.937Z,7.90
2023-05-10T09:25:24.834Z,7.91
2023-05-10T09:27:55.257Z,7.93
2023-05-10T09:30:30.457Z,8.00
2023-05-10T09:33:02.138Z,8.11
2023-05-10T09:35:36.116Z,8.17
2023-05-10T09:38:07.672Z,8.21
2023-05-10T09:40:37.895Z,8.23
2023-05-10T09:43:10.998Z,8.30
2023-05-10T09:45:43.557Z,8.42
2023-05-10T09:48:15.655Z,8.48
2023-05-10T09:50:45.836Z,8.52
2023-05-10T09:53:19.784Z,8.59
2023-05-10T09:55:51.971Z,8.69
2023-05-10T09:58:22.145Z,8.76
2023-05-10T10:00:54.429Z,8.65
2023-05-10T10:03:24.878Z,8.71
2023-05-10T10:05:58.120Z,8.80
2023-05-10T10:08:29.816Z,8.89
2023-05-10T10:11:00.076Z,8.95
2023-05-10T10:13:30.234Z,9.00
2023-05-10T10:16:00.812Z,9.02
2023-05-10T10:18:33.164Z,8.92
2023-05-10T10:21:06.490Z,9.00
2023-05-10T10:23:37.992Z,9.22
2023-05-10T10:26:09.307Z,9.12
2023-05-10T10:28:45.796Z,9.16
2023-05-10T10:31:44.121Z,9.22
2023-05-10T10:34:28.653Z,9.33
2023-05-10T10:37:00.346Z,9.38
2023-05-10T10:39:30.770Z,9.41
2023-05-10T10:42:03.084Z,9.40
2023-05-10T10:44:40.756Z,9.65
2023-05-10T10:47:30.243Z,9.81
2023-05-10T10:50:03.969Z,9.92
2023-05-10T10:52:39.045Z,9.74
2023-05-10T10:55:21.207Z,9.88
2023-05-10T10:58:03.737Z,9.91
2023-05-10T11:00:43.048Z,10.03
2023-05-10T11:03:20.973Z,10.01
2023-05-10T11:06:03.581Z,10.09
2023-05-10T11:08:36.888Z,10.20
2023-05-10T11:11:10.548Z,10.29
2023-05-10T11:13:43.285Z,10.47
2023-05-10T11:16:27.061Z,10.56
2023-05-10T11:19:03.972Z,10.57
2023-05-10T11:21:35.878Z,10.70
2023-05-10T11:24:16.510Z,10.78
2023-05-10T11:26:46.802Z,10.78
2023-05-10T11:29:19.036Z,10.84
2023-05-10T11:31:50.717Z,11.01
2023-05-10T11:34:37.432Z,11.12
2023-05-10T11:37:07.507Z,11.19
2023-05-10T11:39:37.726Z,11.36
2023-05-10T11:42:07.914Z,11.26
2023-05-10T11:44:38.051Z,11.35
2023-05-10T11:47:08.482Z,11.43
2023-05-10T11:49:38.543Z,11.45
2023-05-10T11:52:13.547Z,11.38
2023-05-10T11:55:01.638Z,11.58
2023-05-10T11:57:33.412Z,11.72
2023-05-10T12:00:05.901Z,11.79
2023-05-10T12:02:37.465Z,11.77
2023-05-10T12:05:09.128Z,11.74
2023-05-10T12:07:39.382Z,11.86
2023-05-10T12:10:10.525Z,11.93
2023-05-10T12:12:45.599Z,12.03
2023-05-10T12:15:26.922Z,12.08
2023-05-10T12:17:57.201Z,12.05
2023-05-10T12:20:29.942Z,12.20
2023-05-10T12:23:04.158Z,12.03
2023-05-10T12:25:36.307Z,12.08
2023-05-10T12:28:08.707Z,12.21
2023-05-10T12:30:40.285Z,12.41
2023-05-10T12:33:20.282Z,12.49
2023-05-10T12:35:58.526Z,12.83
2023-05-10T12:38:35.187Z,13.02
2023-05-10T12:41:07.414Z,12.83
2023-05-10T12:43:38.583Z,12.63
2023-05-10T12:46:13.507Z,12.66
2023-05-10T12:48:44.677Z,13.10
2023-05-10T12:51:17.665Z,13.47
2023-05-10T12:53:50.096Z,13.65
2023-05-10T12:56:20.114Z,13.72
2023-05-10T12:58:50.485Z,13.62
2023-05-10T13:01:20.547Z,13.88
2023-05-10T13:03:50.693Z,13.85
2023-05-10T13:06:20.802Z,13.67
2023-05-10T13:08:51.200Z,13.67
2023-05-10T13:11:21.931Z,13.48
2023-05-10T13:13:55.365Z,13.46
2023-05-10T13:16:25.478Z,13.58
2023-05-10T13:18:55.549Z,13.51
2023-05-10T13:21:26.818Z,13.71
2023-05-10T13:23:57.787Z,13.79
2023-05-10T13:26:28.398Z,13.68
2023-05-10T13:28:58.593Z,13.61
2023-05-10T13:31:28.770Z,13.61
2023-05-10T13:33:59.077Z,13.84
2023-05-10T13:36:29.187Z,14.21
2023-05-10T13:38:59.227Z,14.21
2023-05-10T13:41:30.312Z,14.46
2023-05-10T13:44:00.722Z,14.71
2023-05-10T13:46:32.055Z,14.84
2023-05-10T13:49:03.036Z,14.94
2023-05-10T13:51:33.844Z,15.01
2023-05-10T13:54:05.988Z,15.22
2023-05-10T13:56:36.046Z,15.48
2023-05-10T13:59:06.084Z,15.66
2023-05-10T14:02:10.014Z,16.06
2023-05-10T14:04:41.099Z,16.44
2023-05-10T14:07:11.237Z,16.61
2023-05-10T14:09:43.881Z,16.85
2023-05-10T14:12:14.019Z,17.02
2023-05-10T14:14:44.326Z,17.16
2023-05-10T14:17:14.443Z,17.26
2023-05-10T14:19:44.648Z,17.06
2023-05-10T14:22:14.935Z,16.13
2023-05-10T14:24:48.893Z,15.58
2023-05-10T14:27:19.404Z,15.70
2023-05-10T14:29:50.592Z,15.80
2023-05-10T14:32:21.240Z,15.73
2023-05-10T14:34:51.506Z,15.94
2023-05-10T14:37:21.937Z,16.06
2023-05-10T14:39:52.288Z,16.73
2023-05-10T14:42:22.751Z,17.61
2023-05-10T14:44:52.976Z,17.33
2023-05-10T14:47:24.308Z,17.36
2023-05-10T14:49:54.528Z,17.18
2023-05-10T14:52:24.922Z,17.54
2023-05-10T14:54:55.715Z,18.09
2023-05-10T14:57:26.072Z,18.26
2023-05-10T14:59:57.316Z,17.77
2023-05-10T15:02:28.268Z,17.88
2023-05-10T15:04:59.772Z,17.91
2023-05-10T15:07:31.051Z,18.80
2023-05-10T15:10:01.292Z,19.82
2023-05-10T15:12:31.816Z,19.21
2023-05-10T15:15:02.104Z,19.61
2023-05-10T15:17:32.901Z,20.16
2023-05-10T15:20:05.627Z,20.09
2023-05-10T15:22:36.178Z,19.90
2023-05-10T15:25:06.796Z,19.65
2023-05-10T15:27:37.445Z,20.16
2023-05-10T15:30:08.673Z,20.59
2023-05-10T15:32:39.578Z,20.95
2023-05-10T15:35:12.443Z,21.49
2023-05-10T15:37:42.971Z,21.22
2023-05-10T15:40:13.585Z,21.27
2023-05-10T15:42:43.986Z,20.65
2023-05-10T15:45:14.597Z,21.12
2023-05-10T15:47:46.327Z,21.74
2023-05-10T15:50:18.460Z,21.75
2023-05-10T15:52:50.842Z,22.92
2023-05-10T15:55:21.598Z,23.62
2023-05-10T15:57:52.618Z,21.84
2023-05-10T16:00:23.303Z,21.33
2023-05-10T16:02:56.457Z,20.21
2023-05-10T16:05:28.759Z,22.11
2023-05-10T16:07:59.194Z,22.76
2023-05-10T16:10:30.093Z,23.81
2023-05-10T16:13:01.742Z,23.81
2023-05-10T16:15:32.078Z,23.62
2023-05-10T16:18:03.000Z,22.67
2023-05-10T16:20:34.778Z,23.14
2023-05-10T16:23:09.972Z,23.14
2023-05-10T16:25:40.139Z,23.04
2023-05-10T16:28:10.531Z,22.57
2023-05-10T16:30:42.329Z,22.96
2023-05-10T16:33:12.630Z,22.57
2023-05-10T16:35:42.846Z,23.34
2023-05-10T16:38:13.221Z,23.21
2023-05-10T16:40:44.426Z,22.79
2023-05-10T16:43:14.492Z,23.32
2023-05-10T16:45:45.288Z,23.44
2023-05-10T16:48:15.548Z,23.34
2023-05-10T16:50:46.167Z,23.01
2023-05-10T16:53:16.289Z,23.82
2023-05-10T16:55:46.524Z,23.79
2023-05-10T16:58:16.790Z,23.35
2023-05-10T17:00:47.926Z,23.61
2023-05-10T17:03:18.203Z,23.62
2023-05-10T17:05:48.638Z,23.35
2023-05-10T17:08:19.079Z,23.28
2023-05-10T17:10:49.755Z,23.40
2023-05-10T17:13:20.089Z,23.17
2023-05-10T17:15:50.468Z,23.40
2023-05-10T17:18:20.838Z,23.15
2023-05-10T17:20:52.193Z,23.37
2023-05-10T17:23:23.504Z,23.66
2023-05-10T17:25:54.527Z,23.76
2023-05-10T17:28:24.877Z,23.73
2023-05-10T17:30:59.425Z,24.44
2023-05-10T17:33:29.642Z,24.05
2023-05-10T17:36:00.237Z,22.77
2023-05-10T17:38:30.248Z,23.41
2023-05-10T17:41:00.307Z,23.66
2023-05-10T17:43:30.336Z,23.85
2023-05-10T17:46:00.310Z,23.98
2023-05-10T17:48:30.537Z,23.37
2023-05-10T17:51:00.617Z,23.57
2023-05-10T17:53:30.693Z,23.52
2023-05-10T17:56:02.739Z,23.58
2023-05-10T17:58:32.795Z,22.99
2023-05-10T18:01:03.154Z,22.94
2023-05-10T18:03:33.242Z,22.70
2023-05-10T18:06:05.526Z,22.99
2023-05-10T18:08:35.740Z,23.44
2023-05-10T18:11:05.919Z,23.40
2023-05-10T18:13:35.974Z,23.50
2023-05-10T18:16:07.223Z,23.27
2023-05-10T18:18:37.623Z,22.94
2023-05-10T18:21:07.798Z,23.13
2023-05-10T18:23:38.250Z,22.93
2023-05-10T18:26:09.686Z,22.69
2023-05-10T18:28:41.554Z,22.96
2023-05-10T18:31:11.697Z,23.24
2023-05-10T18:33:42.663Z,22.87
2023-05-10T18:36:12.992Z,22.97
2023-05-10T18:38:43.318Z,22.74
2023-05-10T18:41:15.682Z,22.42
2023-05-10T18:43:45.943Z,22.45
2023-05-10T18:46:16.466Z,22.57
2023-05-10T18:48:46.618Z,22.49
2023-05-10T18:51:16.729Z,22.59
2023-05-10T18:53:46.843Z,22.59
2023-05-10T18:56:16.933Z,22.32
2023-05-10T18:58:47.303Z,22.11
2023-05-10T19:01:18.036Z,22.05
2023-05-10T19:03:49.573Z,22.02
2023-05-10T19:06:19.659Z,21.97
2023-05-10T19:08:49.593Z,21.83
2023-05-10T19:11:20.393Z,21.84
2023-05-10T19:13:50.471Z,21.83
2023-05-10T19:16:23.230Z,21.85
2023-05-10T19:18:56.063Z,21.68
2023-05-10T19:21:26.636Z,21.50
2023-05-10T19:23:58.398Z,21.40
2023-05-10T19:26:31.860Z,21.46
2023-05-10T19:29:04.286Z,21.25
2023-05-10T19:31:36.414Z,21.46
2023-05-10T19:34:06.588Z,21.56
2023-05-10T19:36:36.960Z,21.30
2023-05-10T19:39:07.038Z,21.23
2023-05-10T19:41:37.556Z,21.23
2023-05-10T19:44:07.817Z,21.43
2023-05-10T19:46:38.115Z,21.22
2023-05-10T19:49:08.226Z,21.02
2023-05-10T19:51:38.331Z,20.88
2023-05-10T19:54:08.569Z,20.75
2023-05-10T19:56:38.640Z,20.48
2023-05-10T19:59:09.204Z,20.28
2023-05-10T20:01:40.561Z,20.27
2023-05-10T20:04:12.340Z,20.48
2023-05-10T20:06:42.628Z,20.40
2023-05-10T20:09:12.772Z,20.12
2023-05-10T20:11:42.868Z,20.03
2023-05-10T20:14:12.761Z,19.67
2023-05-10T20:16:42.867Z,19.54
2023-05-10T20:19:13.648Z,19.42
2023-05-10T20:21:45.638Z,19.15
2023-05-10T20:24:15.872Z,18.94
2023-05-10T20:26:46.214Z,18.73
2023-05-10T20:29:16.260Z,18.47
2023-05-10T20:31:46.373Z,18.32
2023-05-10T20:34:16.646Z,18.10
2023-05-10T20:36:46.870Z,17.89
2023-05-10T20:39:16.981Z,17.66
2023-05-10T20:41:46.981Z,17.46
2023-05-10T20:44:17.204Z,17.27
2023-05-10T20:46:47.333Z,17.06
2023-05-10T20:49:18.768Z,16.88
2023-05-10T20:51:48.956Z,16.73
2023-05-10T20:54:20.103Z,16.57
2023-05-10T20:56:50.682Z,16.42
2023-05-10T20:59:21.167Z,16.34
2023-05-10T21:01:51.357Z,16.25
2023-05-10T21:04:22.444Z,16.16
2023-05-10T21:06:52.789Z,16.04
2023-05-10T21:09:23.279Z,15.94
2023-05-10T21:11:53.548Z,15.83
2023-05-10T21:14:23.866Z,15.82
2023-05-10T21:16:53.971Z,15.79
2023-05-10T21:19:24.039Z,15.70
2023-05-10T21:21:56.013Z,15.58
2023-05-10T21:24:27.015Z,15.48
2023-05-10T21:26:57.261Z,15.43
2023-05-10T21:29:27.311Z,15.39
2023-05-10T21:31:57.913Z,15.28
2023-05-10T21:34:28.332Z,15.21
2023-05-10T21:36:58.385Z,15.18
2023-05-10T21:39:28.657Z,15.08
2023-05-10T21:42:00.610Z,15.04
2023-05-10T21:44:32.014Z,15.01
2023-05-10T21:47:02.311Z,14.92
2023-05-10T21:49:32.866Z,14.92
2023-05-10T21:52:03.197Z,14.85
2023-05-10T21:54:33.556Z,14.84
2023-05-10T21:57:04.585Z,14.83
2023-05-10T21:59:34.787Z,14.76
2023-05-10T22:02:04.974Z,14.74
2023-05-10T22:04:36.577Z,14.69
2023-05-10T22:07:06.836Z,14.59
2023-05-10T22:09:37.100Z,14.52
2023-05-10T22:12:07.356Z,14.50
2023-05-10T22:14:37.665Z,14.43
2023-05-10T22:17:07.942Z,14.42
2023-05-10T22:19:38.108Z,14.43
2023-05-10T22:22:08.330Z,14.37
2023-05-10T22:24:38.560Z,14.33
2023-05-10T22:27:08.946Z,14.28
2023-05-10T22:29:39.456Z,14.29
2023-05-10T22:32:10.717Z,14.26
2023-05-10T22:34:40.763Z,14.28
2023-05-10T22:37:11.439Z,14.15
2023-05-10T22:39:41.518Z,14.02
2023-05-10T22:42:11.817Z,14.01
2023-05-10T22:44:41.923Z,13.84
2023-05-10T22:47:12.159Z,13.77
2023-05-10T22:49:42.293Z,13.70
2023-05-10T22:52:12.504Z,13.68
2023-05-10T22:54:43.875Z,13.65
2023-05-10T22:57:14.343Z,13.61
2023-05-10T22:59:44.904Z,13.54
2023-05-10T23:02:15.938Z,13.50
2023-05-10T23:04:47.853Z,13.37
2023-05-10T23:07:18.040Z,13.33
2023-05-10T23:09:48.272Z,13.19
2023-05-10T23:12:18.689Z,13.07
2023-05-10T23:14:50.794Z,12.85
2023-05-10T23:17:21.917Z,12.79
2023-05-10T23:19:53.820Z,12.75
2023-05-10T23:22:23.973Z,12.73
2023-05-10T23:24:54.457Z,12.65
2023-05-10T23:27:30.036Z,12.56
2023-05-10T23:30:06.633Z,12.52
2023-05-10T23:32:42.964Z,12.54
2023-05-10T23:35:13.541Z,12.54
2023-05-10T23:37:44.242Z,12.48
2023-05-10T23:40:15.396Z,12.38
2023-05-10T23:42:45.792Z,12.35
2023-05-10T23:45:16.143Z,12.32
2023-05-10T23:47:46.742Z,12.31
2023-05-10T23:50:17.858Z,12.24
2023-05-10T23:52:48.424Z,12.20
2023-05-10T23:55:19.270Z,12.14
2023-05-10T23:57:51.133Z,12.08
